createdAt,value
2019-03-24T00:00:20.627Z,7.8
2019-03-24T00:01:10.102Z,7.8
2019-03-24T00:02:00.177Z,7.8
2019-03-24T00:02:50.785Z,7.8
2019-03-24T00:03:40.046Z,7.7
2019-03-24T00:04:30.399Z,7.7
2019-03-24T00:05:20.690Z,7.7
2019-03-24T00:06:10.769Z,7.6
2019-03-24T00:07:01.087Z,7.6
2019-03-24T00:07:50.869Z,7.6
2019-03-24T00:08:40.934Z,7.7
2019-03-24T00:09:30.999Z,7.7
2019-03-24T00:10:21.059Z,7.6
2019-03-24T00:11:11.097Z,7.6
2019-03-24T00:12:00.900Z,7.6
2019-03-24T00:12:50.964Z,7.6
2019-03-24T00:13:41.040Z,7.6
2019-03-24T00:14:31.632Z,7.6
2019-03-24T00:15:29.486Z,7.6
2019-03-24T00:16:11.539Z,7.6
2019-03-24T00:17:01.541Z,7.6
2019-03-24T00:17:51.614Z,7.6
2019-03-24T00:18:41.990Z,7.5
2019-03-24T00:19:31.713Z,7.5
2019-03-24T00:20:22.061Z,7.5
2019-03-24T00:21:11.574Z,7.5
2019-03-24T00:22:01.901Z,7.5
2019-03-24T00:22:51.727Z,7.5
2019-03-24T00:23:42.008Z,7.4
2019-03-24T00:24:32.364Z,7.5
2019-03-24T00:25:22.156Z,7.5
2019-03-24T00:26:12.528Z,7.5
2019-03-24T00:27:02.001Z,7.5
2019-03-24T00:27:52.328Z,7.5
2019-03-24T00:28:42.383Z,7.6
2019-03-24T00:29:32.448Z,7.6
2019-03-24T00:30:21.988Z,7.5
2019-03-24T00:31:12.608Z,7.4
2019-03-24T00:32:02.091Z,7.4
2019-03-24T00:32:52.413Z,7.5
2019-03-24T00:33:42.800Z,7.5
2019-03-24T00:34:32.853Z,7.4
2019-03-24T00:35:22.868Z,7.4
2019-03-24T00:36:12.420Z,7.4
2019-03-24T00:37:03.281Z,7.4
2019-03-24T00:37:53.045Z,7.4
2019-03-24T00:38:42.825Z,7.4
2019-03-24T00:39:33.181Z,7.3
2019-03-24T00:40:23.520Z,7.3
2019-03-24T00:41:13.005Z,7.4
2019-03-24T00:42:03.642Z,7.4
2019-03-24T00:42:53.432Z,7.3
2019-03-24T00:43:43.490Z,7.4
2019-03-24T00:44:33.257Z,7.4
2019-03-24T00:45:23.870Z,7.4
2019-03-24T00:46:13.925Z,7.4
2019-03-24T00:47:03.181Z,7.4
2019-03-24T00:47:54.054Z,7.3
2019-03-24T00:48:44.115Z,7.4
2019-03-24T00:49:33.607Z,7.4
2019-03-24T00:50:23.964Z,7.4
2019-03-24T00:51:14.014Z,7.4
2019-03-24T00:52:04.094Z,7.4
2019-03-24T00:52:54.132Z,7.4
2019-03-24T00:53:44.494Z,7.4
2019-03-24T00:54:33.719Z,7.3
2019-03-24T00:55:24.314Z,7.3
2019-03-24T00:56:14.663Z,7.3
2019-03-24T00:57:04.449Z,7.3
2019-03-24T00:57:54.501Z,7.3
2019-03-24T00:58:44.872Z,7.3
2019-03-24T00:59:34.903Z,7.3
2019-03-24T01:00:24.139Z,7.3
2019-03-24T01:01:14.487Z,7.3
2019-03-24T01:02:04.816Z,7.3
2019-03-24T01:02:54.871Z,7.2
2019-03-24T01:03:44.931Z,7.3
2019-03-24T01:04:34.978Z,7.3
2019-03-24T01:05:24.531Z,7.3
2019-03-24T01:06:14.557Z,7.3
2019-03-24T01:07:05.449Z,7.3
2019-03-24T01:07:55.514Z,7.3
2019-03-24T01:08:44.739Z,7.2
2019-03-24T01:09:35.116Z,7.2
2019-03-24T01:10:25.421Z,7.2
2019-03-24T01:11:15.470Z,7.1
2019-03-24T01:12:05.271Z,7.2
2019-03-24T01:12:55.596Z,7.1
2019-03-24T01:13:45.976Z,7.1
2019-03-24T01:14:36.005Z,7.1
2019-03-24T01:15:26.033Z,7.1
2019-03-24T01:16:15.853Z,7.1
2019-03-24T01:17:05.625Z,7.1
2019-03-24T01:17:57.885Z,7
2019-03-24T01:18:46.326Z,7.1
2019-03-24T01:19:36.068Z,7
2019-03-24T01:20:26.460Z,6.9
2019-03-24T01:21:15.958Z,6.9
2019-03-24T01:22:05.725Z,6.9
2019-03-24T01:22:56.736Z,7
2019-03-24T01:23:46.371Z,7
2019-03-24T01:24:36.453Z,7
2019-03-24T01:25:26.850Z,6.9
2019-03-24T01:26:16.288Z,7
2019-03-24T01:27:06.340Z,7
2019-03-24T01:27:56.416Z,7
2019-03-24T01:28:45.935Z,6.9
2019-03-24T01:29:37.087Z,6.8
2019-03-24T01:30:26.312Z,6.8
2019-03-24T01:31:17.202Z,6.8
2019-03-24T01:32:06.980Z,6.7
2019-03-24T01:32:57.044Z,6.6
2019-03-24T01:33:47.374Z,6.6
2019-03-24T01:34:37.172Z,6.7
2019-03-24T01:35:27.505Z,6.8
2019-03-24T01:36:17.281Z,6.7
2019-03-24T01:37:07.348Z,6.2
2019-03-24T01:37:57.407Z,5.7
2019-03-24T01:38:47.779Z,5.3
2019-03-24T01:39:37.804Z,5.1
2019-03-24T01:40:27.879Z,4.9
2019-03-24T01:41:17.929Z,4.8
2019-03-24T01:42:07.427Z,4.6
2019-03-24T01:42:57.509Z,4.5
2019-03-24T01:43:47.617Z,4.5
2019-03-24T01:44:37.624Z,4.5
2019-03-24T01:45:27.681Z,4.4
2019-03-24T01:46:17.211Z,4.4
2019-03-24T01:47:07.796Z,4.4
2019-03-24T01:47:58.414Z,4.3
2019-03-24T01:48:48.473Z,4.3
2019-03-24T01:49:38.519Z,4.3
2019-03-24T01:50:28.356Z,4.3
2019-03-24T01:51:18.103Z,4.3
2019-03-24T01:52:08.430Z,4.1
2019-03-24T01:52:58.781Z,4.1
2019-03-24T01:53:48.836Z,4.1
2019-03-24T01:54:38.665Z,4.1
2019-03-24T01:55:28.979Z,4.1
2019-03-24T01:56:19.014Z,4.1
2019-03-24T01:57:09.078Z,4
2019-03-24T01:57:59.139Z,4.1
2019-03-24T01:58:49.206Z,4
2019-03-24T01:59:38.978Z,3.9
2019-03-24T02:00:29.315Z,3.9
2019-03-24T02:01:19.379Z,3.9
2019-03-24T02:02:08.903Z,3.9
2019-03-24T02:02:59.251Z,3.8
2019-03-24T02:03:49.581Z,3.8
2019-03-24T02:04:39.625Z,3.8
2019-03-24T02:05:29.690Z,3.8
2019-03-24T02:06:18.730Z,3.8
2019-03-24T02:07:08.782Z,3.8
2019-03-24T02:07:59.305Z,3.8
2019-03-24T02:08:49.648Z,3.7
2019-03-24T02:09:39.717Z,3.6
2019-03-24T02:10:29.572Z,3.6
2019-03-24T02:11:20.120Z,3.6
2019-03-24T02:12:09.405Z,3.6
2019-03-24T02:12:59.200Z,3.6
2019-03-24T02:13:50.282Z,3.6
2019-03-24T02:14:39.602Z,3.6
2019-03-24T02:15:29.942Z,3.6
2019-03-24T02:16:19.707Z,3.6
2019-03-24T02:17:09.507Z,3.6
2019-03-24T02:18:00.118Z,3.6
2019-03-24T02:18:49.907Z,3.6
2019-03-24T02:19:39.979Z,3.6
2019-03-24T02:20:30.289Z,3.6
2019-03-24T02:21:20.139Z,3.5
2019-03-24T02:22:10.169Z,3.5
2019-03-24T02:23:00.947Z,3.5
2019-03-24T02:23:50.272Z,3.6
2019-03-24T02:24:40.597Z,3.6
2019-03-24T02:25:30.382Z,3.5
2019-03-24T02:26:20.147Z,3.5
2019-03-24T02:27:10.514Z,3.6
2019-03-24T02:28:00.854Z,3.6
2019-03-24T02:28:50.631Z,3.6
2019-03-24T02:29:40.696Z,3.6
2019-03-24T02:30:30.805Z,3.6
2019-03-24T02:31:21.107Z,3.6
2019-03-24T02:32:11.160Z,3.6
2019-03-24T02:33:01.252Z,3.7
2019-03-24T02:33:51.056Z,3.7
2019-03-24T02:34:40.876Z,3.6
2019-03-24T02:35:30.912Z,3.6
2019-03-24T02:36:20.429Z,3.6
2019-03-24T02:37:10.750Z,3.6
2019-03-24T02:38:01.036Z,3.6
2019-03-24T02:38:51.704Z,3.5
2019-03-24T02:39:41.465Z,3.5
2019-03-24T02:40:31.230Z,3.5
2019-03-24T02:41:21.845Z,3.4
2019-03-24T02:42:11.883Z,3.4
2019-03-24T02:43:01.454Z,3.4
2019-03-24T02:43:51.199Z,3.4
2019-03-24T02:44:41.269Z,3.5
2019-03-24T02:45:32.148Z,3.4
2019-03-24T02:46:27.060Z,3.4
2019-03-24T02:47:12.267Z,3.3
2019-03-24T02:48:02.344Z,3.3
2019-03-24T02:48:52.396Z,3.3
2019-03-24T02:49:42.186Z,3.3
2019-03-24T02:50:31.686Z,3.3
2019-03-24T02:51:22.319Z,3.3
2019-03-24T02:52:12.618Z,3.3
2019-03-24T02:53:02.460Z,3.3
2019-03-24T02:53:52.201Z,3.2
2019-03-24T02:54:42.825Z,3.3
2019-03-24T02:55:32.598Z,3.2
2019-03-24T02:56:22.606Z,3.2
2019-03-24T02:57:12.464Z,3.2
2019-03-24T02:58:03.269Z,3.2
2019-03-24T02:58:53.120Z,3.2
2019-03-24T02:59:43.687Z,3.2
2019-03-24T03:00:33.180Z,3.1
2019-03-24T03:01:23.765Z,3.1
2019-03-24T03:02:13.583Z,3.1
2019-03-24T03:03:03.439Z,3.1
2019-03-24T03:03:53.983Z,3.1
2019-03-24T03:07:24.595Z,3.1
2019-03-24T03:08:14.152Z,3.1
2019-03-24T03:09:03.886Z,3.1
2019-03-24T03:09:54.254Z,3.2
2019-03-24T03:10:44.640Z,3.2
2019-03-24T03:11:34.886Z,3.1
2019-03-24T03:12:23.934Z,3.2
2019-03-24T03:13:14.737Z,3.1
2019-03-24T03:14:04.023Z,3.2
2019-03-24T03:14:55.109Z,3.2
2019-03-24T03:15:44.915Z,3.1
2019-03-24T03:16:41.686Z,3.2
2019-03-24T03:17:24.856Z,3.1
2019-03-24T03:18:15.123Z,3.1
2019-03-24T03:19:05.170Z,3.1
2019-03-24T03:19:56.419Z,3.1
2019-03-24T03:20:45.559Z,3.1
2019-03-24T03:21:35.615Z,3.1
2019-03-24T03:22:25.143Z,3.2
2019-03-24T03:23:15.739Z,3.2
2019-03-24T03:24:05.829Z,3.2
2019-03-24T03:24:55.614Z,3.2
2019-03-24T03:25:45.926Z,3.2
2019-03-24T03:26:35.701Z,3.2
2019-03-24T03:27:25.468Z,3.2
2019-03-24T03:28:16.084Z,3.2
2019-03-24T03:29:05.961Z,3.1
2019-03-24T03:29:56.219Z,3.1
2019-03-24T03:30:46.139Z,3.1
2019-03-24T03:31:36.422Z,3.1
2019-03-24T03:32:26.222Z,3.1
2019-03-24T03:33:16.639Z,2.9
2019-03-24T03:34:06.620Z,3
2019-03-24T03:34:56.472Z,2.9
2019-03-24T03:35:46.408Z,2.9
2019-03-24T03:36:36.689Z,2.9
2019-03-24T03:37:26.646Z,2.9
2019-03-24T03:38:16.759Z,2.9
2019-03-24T03:39:06.969Z,2.9
2019-03-24T03:40:01.963Z,2.9
2019-03-24T03:40:47.194Z,2.9
2019-03-24T03:41:37.101Z,2.9
2019-03-24T03:42:26.893Z,2.9
2019-03-24T03:43:16.905Z,2.9
2019-03-24T03:44:06.702Z,2.9
2019-03-24T03:44:56.771Z,2.9
2019-03-24T03:45:47.121Z,3
2019-03-24T03:46:36.932Z,3
2019-03-24T03:47:26.953Z,3.1
2019-03-24T03:48:17.261Z,3.1
2019-03-24T03:49:07.641Z,3.2
2019-03-24T03:49:57.408Z,3.2
2019-03-24T03:50:47.472Z,3.1
2019-03-24T03:51:37.563Z,3.1
2019-03-24T03:52:27.546Z,3.1
2019-03-24T03:53:17.900Z,3.1
2019-03-24T03:54:08.090Z,3.1
2019-03-24T03:54:57.796Z,3.1
2019-03-24T03:55:47.845Z,3.1
2019-03-24T03:56:37.681Z,3.2
2019-03-24T03:57:28.219Z,3.1
2019-03-24T03:58:18.000Z,3.2
2019-03-24T03:59:08.085Z,3.2
2019-03-24T03:59:58.396Z,3.2
2019-03-24T04:00:48.488Z,3.3
2019-03-24T04:01:38.274Z,3.3
2019-03-24T04:02:28.592Z,3.2
2019-03-24T04:03:18.633Z,3.3
2019-03-24T04:04:08.411Z,3.3
2019-03-24T04:04:58.210Z,3.3
2019-03-24T04:05:48.561Z,3.2
2019-03-24T04:06:37.537Z,3.2
2019-03-24T04:07:28.438Z,3.2
2019-03-24T04:08:19.011Z,3.2
2019-03-24T04:09:09.101Z,3.2
2019-03-24T04:09:58.594Z,3.3
2019-03-24T04:10:48.931Z,3.3
2019-03-24T04:11:39.259Z,3.2
2019-03-24T04:12:29.300Z,3.3
2019-03-24T04:13:18.579Z,3.3
2019-03-24T04:14:09.417Z,3.2
2019-03-24T04:14:59.509Z,3.2
2019-03-24T04:15:48.724Z,3.2
2019-03-24T04:16:39.348Z,3.3
2019-03-24T04:17:29.364Z,3.3
2019-03-24T04:18:19.497Z,3.3
2019-03-24T04:19:09.522Z,3.3
2019-03-24T04:19:59.566Z,3.3
2019-03-24T04:20:49.926Z,3.3
2019-03-24T04:21:39.700Z,3.3
2019-03-24T04:22:30.054Z,3.3
2019-03-24T04:23:20.096Z,3.3
2019-03-24T04:24:10.195Z,3.3
2019-03-24T04:24:59.969Z,3.3
2019-03-24T04:25:50.091Z,3.3
2019-03-24T04:26:39.773Z,3.3
2019-03-24T04:27:30.398Z,3.3
2019-03-24T04:28:20.218Z,3.3
2019-03-24T04:29:09.976Z,3.3
2019-03-24T04:29:59.190Z,3.3
2019-03-24T04:30:50.083Z,3.3
2019-03-24T04:31:40.747Z,3.2
2019-03-24T04:32:30.502Z,3.2
2019-03-24T04:33:20.539Z,3.1
2019-03-24T04:34:10.623Z,3.1
2019-03-24T04:35:01.021Z,3.1
2019-03-24T04:35:50.708Z,3.1
2019-03-24T04:36:40.560Z,3.1
2019-03-24T04:37:33.665Z,3.1
2019-03-24T04:38:20.894Z,3.2
2019-03-24T04:39:10.971Z,3.2
2019-03-24T04:40:00.873Z,3.1
2019-03-24T04:40:50.603Z,3.1
2019-03-24T04:41:40.866Z,3.1
2019-03-24T04:42:30.936Z,3.1
2019-03-24T04:43:20.988Z,3.1
2019-03-24T04:44:11.580Z,3.1
2019-03-24T04:45:01.094Z,3
2019-03-24T04:45:51.422Z,2.9
2019-03-24T04:46:41.216Z,2.9
2019-03-24T04:47:31.527Z,2.9
2019-03-24T04:48:21.314Z,2.8
2019-03-24T04:49:11.929Z,2.8
2019-03-24T04:50:01.737Z,2.8
2019-03-24T04:50:51.832Z,2.7
2019-03-24T04:51:42.117Z,2.8
2019-03-24T04:52:32.184Z,2.8
2019-03-24T04:53:23.522Z,2.8
2019-03-24T04:54:11.461Z,2.8
2019-03-24T04:55:02.121Z,2.8
2019-03-24T04:55:51.864Z,2.7
2019-03-24T04:56:42.201Z,2.8
2019-03-24T04:57:31.986Z,2.8
2019-03-24T04:58:21.791Z,2.8
2019-03-24T04:59:12.126Z,2.8
2019-03-24T05:00:02.686Z,2.8
2019-03-24T05:00:52.579Z,2.8
2019-03-24T05:01:42.281Z,2.8
2019-03-24T05:02:32.379Z,2.8
2019-03-24T05:03:22.747Z,2.8
2019-03-24T05:04:12.785Z,2.8
2019-03-24T05:05:03.124Z,2.8
2019-03-24T05:05:52.621Z,2.8
2019-03-24T05:06:42.938Z,2.7
2019-03-24T05:07:32.975Z,2.7
2019-03-24T05:08:23.363Z,2.8
2019-03-24T05:09:13.382Z,2.8
2019-03-24T05:10:03.180Z,2.8
2019-03-24T05:10:52.950Z,2.7
2019-03-24T05:11:43.290Z,2.7
2019-03-24T05:12:33.057Z,2.6
2019-03-24T05:13:23.120Z,2.7
2019-03-24T05:14:13.465Z,2.8
2019-03-24T05:15:03.841Z,2.8
2019-03-24T05:15:53.939Z,2.8
2019-03-24T05:16:43.647Z,2.8
2019-03-24T05:17:33.979Z,2.9
2019-03-24T05:18:24.042Z,2.9
2019-03-24T05:19:14.097Z,2.9
2019-03-24T05:20:04.175Z,2.9
2019-03-24T05:20:53.672Z,3
2019-03-24T05:21:44.029Z,3.1
2019-03-24T05:22:34.352Z,3.1
2019-03-24T05:23:23.874Z,3.1
2019-03-24T05:24:14.474Z,3.2
2019-03-24T05:25:04.002Z,3.2
2019-03-24T05:25:54.601Z,3.3
2019-03-24T05:26:43.819Z,3.3
2019-03-24T05:27:34.207Z,3.4
2019-03-24T05:28:24.534Z,3.4
2019-03-24T05:29:14.599Z,3.4
2019-03-24T05:30:04.339Z,3.4
2019-03-24T05:30:54.129Z,3.4
2019-03-24T05:31:44.719Z,3.6
2019-03-24T05:32:34.534Z,3.8
2019-03-24T05:33:24.585Z,3.7
2019-03-24T05:34:14.377Z,3.8
2019-03-24T05:35:06.745Z,3.8
2019-03-24T05:35:55.058Z,3.9
2019-03-24T05:36:44.826Z,3.9
2019-03-24T05:37:35.439Z,3.9
2019-03-24T05:38:25.484Z,4
2019-03-24T05:39:15.022Z,4.1
2019-03-24T05:40:05.076Z,4.3
2019-03-24T05:40:55.665Z,4.3
2019-03-24T05:41:45.729Z,4.1
2019-03-24T05:42:35.026Z,4.1
2019-03-24T05:43:25.874Z,4.1
2019-03-24T05:44:15.703Z,4.2
2019-03-24T05:45:05.998Z,4.3
2019-03-24T05:45:56.048Z,4.6
2019-03-24T05:46:45.820Z,4.7
2019-03-24T05:47:40.323Z,4.9
2019-03-24T05:48:26.273Z,4.9
2019-03-24T05:49:16.280Z,4.9
2019-03-24T05:50:06.335Z,5.1
2019-03-24T05:50:56.174Z,5
2019-03-24T05:51:46.181Z,5.1
2019-03-24T05:52:35.968Z,5.2
2019-03-24T05:53:26.578Z,5.3
2019-03-24T05:54:16.388Z,5.4
2019-03-24T05:55:06.418Z,5.6
2019-03-24T05:55:56.531Z,5.6
2019-03-24T05:56:46.000Z,5.6
2019-03-24T05:57:36.353Z,5.6
2019-03-24T05:58:26.990Z,5.8
2019-03-24T05:59:16.783Z,5.9
2019-03-24T06:00:06.805Z,5.9
2019-03-24T06:00:56.603Z,6
2019-03-24T06:01:47.195Z,6.1
2019-03-24T06:02:36.973Z,6.1
2019-03-24T06:03:26.464Z,6.1
2019-03-24T06:05:23.870Z,6.3
2019-03-24T06:06:14.225Z,6.4
2019-03-24T06:07:04.289Z,6.4
2019-03-24T06:07:54.617Z,6.6
2019-03-24T06:08:44.677Z,6.6
2019-03-24T06:09:34.764Z,6.8
2019-03-24T06:10:24.505Z,6.8
2019-03-24T06:11:14.302Z,6.9
2019-03-24T06:12:04.638Z,7
2019-03-24T06:12:55.024Z,7.1
2019-03-24T06:13:44.606Z,7.3
2019-03-24T06:14:34.808Z,7.3
2019-03-24T06:15:24.864Z,7.4
2019-03-24T06:16:14.932Z,7.3
2019-03-24T06:17:05.311Z,7.3
2019-03-24T06:17:54.769Z,7.3
2019-03-24T06:18:44.566Z,7.2
2019-03-24T06:19:34.636Z,7.3
2019-03-24T06:20:25.249Z,7.6
2019-03-24T06:21:15.044Z,7.7
2019-03-24T06:22:05.359Z,7.9
2019-03-24T06:22:54.886Z,7.9
2019-03-24T06:23:44.941Z,7.9
2019-03-24T06:24:35.561Z,8.1
2019-03-24T06:25:25.937Z,7.9
2019-03-24T06:26:15.372Z,8
2019-03-24T06:27:05.248Z,8.3
2019-03-24T06:27:56.106Z,8.3
2019-03-24T07:05:23.815Z,10.6
2019-03-24T07:06:13.914Z,10.3
2019-03-24T07:07:04.520Z,10.4
2019-03-24T07:07:54.569Z,10.2
2019-03-24T07:08:43.812Z,10.4
2019-03-24T07:09:34.120Z,10.9
2019-03-24T07:10:24.217Z,10.9
2019-03-24T07:11:16.599Z,11.1
2019-03-24T07:12:04.307Z,11.1
2019-03-24T07:12:54.913Z,11.3
2019-03-24T07:13:44.713Z,11.1
2019-03-24T07:14:35.019Z,10.6
2019-03-24T07:15:24.535Z,10.6
2019-03-24T07:16:14.867Z,11.1
2019-03-24T07:17:05.219Z,10.6
2019-03-24T07:17:54.447Z,10.9
2019-03-24T07:18:45.059Z,10.7
2019-03-24T07:19:35.117Z,10.6
2019-03-24T07:20:25.485Z,10.7
2019-03-24T07:21:15.517Z,10.7
2019-03-24T07:22:07.262Z,10.8
2019-03-24T07:22:55.644Z,10.5
2019-03-24T07:23:45.694Z,11
2019-03-24T07:24:35.760Z,11.6
2019-03-24T07:25:25.269Z,11.7
2019-03-24T07:26:15.590Z,11.9
2019-03-24T07:27:05.659Z,11.3
2019-03-24T07:27:55.712Z,11.1
2019-03-24T07:28:45.774Z,11.1
2019-03-24T07:29:35.546Z,11.1
2019-03-24T07:30:25.926Z,10.9
2019-03-24T07:31:15.974Z,11.3
2019-03-24T07:32:06.036Z,11.4
2019-03-24T07:32:56.379Z,11.9
2019-03-24T07:33:46.154Z,12.2
2019-03-24T07:34:36.226Z,12
2019-03-24T07:35:26.548Z,12.3
2019-03-24T07:36:16.052Z,11.9
2019-03-24T07:37:06.661Z,11.3
2019-03-24T07:37:56.714Z,11.3
2019-03-24T07:38:46.511Z,11.9
2019-03-24T07:39:36.301Z,12.4
2019-03-24T07:40:26.350Z,12.8
2019-03-24T07:41:16.419Z,13
2019-03-24T07:42:08.285Z,13.3
2019-03-24T07:42:56.259Z,13.1
2019-03-24T07:43:46.598Z,13.4
2019-03-24T07:44:36.375Z,13.4
2019-03-24T07:45:26.717Z,13.5
2019-03-24T07:46:17.323Z,13.6
2019-03-24T07:47:07.112Z,13.5
2019-03-24T07:47:57.448Z,13.4
2019-03-24T07:48:47.505Z,13.5
2019-03-24T07:49:37.553Z,13.4
2019-03-24T07:50:27.628Z,13.4
2019-03-24T07:51:17.410Z,13.3
2019-03-24T07:52:07.481Z,13.3
2019-03-24T07:52:57.795Z,13.1
2019-03-24T07:53:47.865Z,13
2019-03-24T07:54:37.380Z,13.5
2019-03-24T07:55:27.992Z,13.6
2019-03-24T07:56:17.780Z,13.6
2019-03-24T07:57:07.614Z,13.1
2019-03-24T07:57:58.215Z,13.4
2019-03-24T07:58:49.045Z,13.6
2019-03-24T07:59:38.315Z,13.4
2019-03-24T08:00:28.082Z,13.3
2019-03-24T08:01:18.154Z,13.8
2019-03-24T08:02:07.911Z,13.9
2019-03-24T08:02:58.567Z,14.1
2019-03-24T08:03:48.050Z,14.3
2019-03-24T08:04:38.385Z,14.4
2019-03-24T08:05:28.499Z,14
2019-03-24T08:06:18.502Z,13.9
2019-03-24T08:07:08.596Z,14.1
2019-03-24T08:07:58.630Z,14.2
2019-03-24T08:08:48.134Z,14.5
2019-03-24T08:09:39.972Z,14.4
2019-03-24T08:10:29.086Z,14.9
2019-03-24T08:11:18.879Z,15.1
2019-03-24T08:12:08.949Z,14.8
2019-03-24T08:12:59.567Z,14.7
2019-03-24T08:13:56.246Z,14.9
2019-03-24T08:14:39.382Z,14.9
2019-03-24T08:15:29.205Z,14.5
2019-03-24T08:16:18.734Z,14.1
2019-03-24T08:17:09.287Z,13.5
2019-03-24T08:17:59.338Z,13.6
2019-03-24T08:18:49.414Z,14.2
2019-03-24T08:19:38.989Z,14.5
2019-03-24T08:20:29.817Z,14.6
2019-03-24T08:21:19.317Z,14.6
2019-03-24T08:22:09.650Z,14.8
2019-03-24T08:22:59.719Z,14.7
2019-03-24T08:23:49.774Z,14.8
2019-03-24T08:24:39.826Z,14.9
2019-03-24T08:25:29.343Z,14.8
2019-03-24T08:26:19.444Z,14.6
2019-03-24T08:27:10.026Z,14.9
2019-03-24T08:28:00.081Z,14.6
2019-03-24T08:28:50.420Z,14.2
2019-03-24T08:29:40.480Z,14.1
2019-03-24T08:30:31.798Z,14.4
2019-03-24T08:31:20.610Z,14.4
2019-03-24T08:32:09.554Z,14.8
2019-03-24T08:33:00.434Z,14.7
2019-03-24T08:33:50.540Z,14.6
2019-03-24T08:34:40.559Z,14.4
2019-03-24T08:35:30.910Z,14.3
2019-03-24T08:36:20.704Z,14.3
2019-03-24T08:37:11.090Z,14.8
2019-03-24T08:38:00.820Z,14.7
2019-03-24T08:38:51.145Z,15.3
2019-03-24T08:39:40.934Z,15.9
2019-03-24T08:40:30.985Z,16
2019-03-24T08:41:20.771Z,16
2019-03-24T08:42:11.120Z,16.5
2019-03-24T08:43:01.447Z,16.6
2019-03-24T08:43:51.522Z,16.5
2019-03-24T08:44:41.290Z,16.6
2019-03-24T08:45:31.349Z,16.8
2019-03-24T08:46:21.134Z,16.9
2019-03-24T08:47:11.488Z,16.8
2019-03-24T08:48:00.989Z,16.8
2019-03-24T08:48:51.592Z,16.7
2019-03-24T08:49:41.962Z,16.9
2019-03-24T08:50:31.717Z,16.8
2019-03-24T08:51:20.942Z,16.8
2019-03-24T08:52:11.614Z,17.3
2019-03-24T08:53:01.897Z,17.5
2019-03-24T08:53:52.232Z,17.4
2019-03-24T08:54:42.287Z,16.4
2019-03-24T08:55:32.372Z,16.3
2019-03-24T08:56:22.409Z,15.8
2019-03-24T08:57:11.929Z,15.8
2019-03-24T08:58:02.309Z,15.8
2019-03-24T08:58:52.028Z,15.4
2019-03-24T08:59:42.685Z,15.6
2019-03-24T09:00:33.494Z,16.3
2019-03-24T09:01:22.497Z,16.6
2019-03-24T09:02:12.570Z,16.8
2019-03-24T09:03:02.900Z,16.8
2019-03-24T09:04:43.037Z,17.1
2019-03-24T09:05:35.114Z,17.3
2019-03-24T09:06:22.599Z,16.5
2019-03-24T09:07:12.925Z,16
2019-03-24T09:08:02.806Z,16
2019-03-24T09:08:53.335Z,16.5
2019-03-24T09:09:42.829Z,16.8
2019-03-24T09:10:33.160Z,16.5
2019-03-24T09:11:34.151Z,16.3
2019-03-24T09:12:13.550Z,16.6
2019-03-24T09:13:03.341Z,16.6
2019-03-24T09:13:53.696Z,16.6
2019-03-24T09:14:43.791Z,16.2
2019-03-24T09:15:33.523Z,16.4
2019-03-24T09:17:13.653Z,17.4
2019-03-24T09:18:03.990Z,17.8
2019-03-24T09:18:55.761Z,18.1
2019-03-24T09:19:43.839Z,18.2
2019-03-24T09:20:44.563Z,18.2
2019-03-24T09:21:23.685Z,18.2
2019-03-24T09:22:13.495Z,18.1
2019-03-24T09:23:03.810Z,18.2
2019-03-24T09:23:53.913Z,18.3
2019-03-24T09:24:43.951Z,18.2
2019-03-24T09:25:34.745Z,17.9
2019-03-24T09:26:24.575Z,17.8
2019-03-24T09:27:14.095Z,17.4
2019-03-24T09:28:04.782Z,17.6
2019-03-24T09:28:54.520Z,17.9
2019-03-24T09:29:44.875Z,17.9
2019-03-24T09:30:34.902Z,18.3
2019-03-24T09:31:24.415Z,18.8
2019-03-24T09:32:15.020Z,19
2019-03-24T09:33:54.597Z,18.6
2019-03-24T09:34:45.228Z,18.8
2019-03-24T09:35:35.303Z,19.3
2019-03-24T09:36:25.315Z,19.1
2019-03-24T09:37:15.106Z,19.2
2019-03-24T09:38:05.185Z,19.4
2019-03-24T09:38:55.509Z,19.4
2019-03-24T09:39:45.019Z,19.6
2019-03-24T09:40:35.386Z,19.4
2019-03-24T09:41:25.431Z,19.2
2019-03-24T09:42:15.484Z,19.3
2019-03-24T09:43:05.858Z,19.4
2019-03-24T09:43:55.867Z,19.8
2019-03-24T09:44:45.659Z,19.8
2019-03-24T09:45:35.499Z,19.6
2019-03-24T09:46:25.806Z,19.8
2019-03-24T09:47:15.844Z,19.8
2019-03-24T09:48:06.184Z,18.8
2019-03-24T09:49:06.029Z,18.6
2019-03-24T09:49:46.011Z,19.1
2019-03-24T09:50:36.276Z,18.9
2019-03-24T09:51:25.876Z,19
2019-03-24T09:52:16.212Z,18.6
2019-03-24T09:53:06.606Z,18.4
2019-03-24T09:53:56.589Z,18.2
2019-03-24T09:54:46.383Z,18.1
2019-03-24T09:55:36.708Z,17.9
2019-03-24T09:56:26.500Z,18.8
2019-03-24T09:57:16.282Z,19.3
2019-03-24T09:58:06.916Z,19.4
2019-03-24T09:58:56.673Z,18.8
2019-03-24T09:59:46.733Z,18.9
2019-03-24T10:00:37.088Z,19.4
2019-03-24T10:01:27.183Z,18.9
2019-03-24T10:02:16.926Z,19
2019-03-24T10:03:06.708Z,19.3
2019-03-24T10:03:57.310Z,19.5
2019-03-24T10:06:23.423Z,19.9
2019-03-24T10:07:13.805Z,20.4
2019-03-24T10:08:03.828Z,20.6
2019-03-24T10:08:53.857Z,20.4
2019-03-24T10:09:43.662Z,20.6
2019-03-24T10:10:34.542Z,21.1
2019-03-24T10:11:24.592Z,21.3
2019-03-24T10:12:14.723Z,21
2019-03-24T10:13:04.743Z,20.6
2019-03-24T10:13:54.499Z,20.9
2019-03-24T10:14:44.852Z,20.6
2019-03-24T10:15:34.657Z,21
2019-03-24T10:16:24.970Z,20.9
2019-03-24T10:17:15.064Z,20.4
2019-03-24T10:18:04.885Z,20.1
2019-03-24T10:18:54.859Z,20.5
2019-03-24T10:19:44.933Z,20.7
2019-03-24T10:20:34.726Z,20.6
2019-03-24T10:21:25.327Z,19.9
2019-03-24T10:22:14.835Z,19.3
2019-03-24T10:23:05.477Z,19.6
2019-03-24T10:23:55.519Z,20.1
2019-03-24T10:24:45.339Z,20.4
2019-03-24T10:25:35.629Z,20
2019-03-24T10:26:25.410Z,19.7
2019-03-24T10:27:15.471Z,19.8
2019-03-24T10:28:05.852Z,19.7
2019-03-24T10:28:55.587Z,19.8
2019-03-24T10:29:45.939Z,19.6
2019-03-24T10:30:35.989Z,20
2019-03-24T10:31:25.781Z,20.3
2019-03-24T10:32:16.127Z,20.4
2019-03-24T10:33:06.203Z,20.3
2019-03-24T10:33:56.236Z,20.5
2019-03-24T10:34:46.324Z,20.3
2019-03-24T10:35:36.346Z,20.3
2019-03-24T10:36:26.424Z,20.4
2019-03-24T10:37:16.521Z,20.5
2019-03-24T10:38:05.439Z,20.8
2019-03-24T10:38:56.041Z,21.1
2019-03-24T10:40:36.173Z,20.3
2019-03-24T10:41:25.674Z,20.4
2019-03-24T10:42:16.563Z,20.5
2019-03-24T10:43:06.923Z,20.3
2019-03-24T10:43:56.960Z,20.3
2019-03-24T10:44:46.192Z,20.8
2019-03-24T10:45:37.100Z,20.9
2019-03-24T10:46:26.582Z,20.9
2019-03-24T10:47:16.658Z,20.8
2019-03-24T10:48:07.008Z,20.7
2019-03-24T10:48:56.496Z,21
2019-03-24T10:49:46.855Z,19.9
2019-03-24T10:50:37.655Z,19.1
2019-03-24T10:52:17.538Z,18.3
2019-03-24T10:53:07.134Z,18.8
2019-03-24T10:53:57.417Z,18.4
2019-03-24T10:54:47.180Z,18.9
2019-03-24T10:55:37.265Z,19.2
2019-03-24T10:56:27.337Z,19.1
2019-03-24T10:57:17.942Z,19.6
2019-03-24T10:58:08.068Z,20.8
2019-03-24T10:58:58.010Z,21
2019-03-24T10:59:47.832Z,20.4
2019-03-24T11:00:38.184Z,20.1
2019-03-24T11:01:27.977Z,19.8
2019-03-24T11:02:18.037Z,19.6
2019-03-24T11:03:08.077Z,19.3
2019-03-24T11:03:57.857Z,19.3
2019-03-24T11:04:48.487Z,19.1
2019-03-24T11:05:38.552Z,19.5
2019-03-24T11:06:27.764Z,20.1
2019-03-24T11:07:18.418Z,20.4
2019-03-24T11:08:08.451Z,20.4
2019-03-24T11:08:58.235Z,20.4
2019-03-24T11:09:49.102Z,20.3
2019-03-24T11:10:38.633Z,20.5
2019-03-24T11:11:28.146Z,20.9
2019-03-24T11:12:18.756Z,21.3
2019-03-24T11:13:23.474Z,21.3
2019-03-24T11:13:59.161Z,21.3
2019-03-24T11:14:48.374Z,21.3
2019-03-24T11:15:38.722Z,21
2019-03-24T11:16:29.347Z,20.9
2019-03-24T11:17:19.401Z,19.8
2019-03-24T11:18:09.469Z,19.5
2019-03-24T11:18:59.501Z,18.9
2019-03-24T11:20:38.533Z,18.6
2019-03-24T11:21:29.451Z,18.9
2019-03-24T11:22:19.481Z,18.8
2019-03-24T11:23:09.816Z,18.2
2019-03-24T11:23:59.871Z,18.5
2019-03-24T11:24:49.928Z,19
2019-03-24T11:25:39.436Z,19
2019-03-24T11:26:30.069Z,19.1
2019-03-24T11:27:20.112Z,18.9
2019-03-24T11:28:09.349Z,19
2019-03-24T11:28:59.976Z,18.5
2019-03-24T11:29:50.023Z,19.2
2019-03-24T11:30:40.083Z,19.5
2019-03-24T11:31:29.873Z,19.1
2019-03-24T11:32:19.743Z,19.5
2019-03-24T11:33:10.553Z,19.1
2019-03-24T11:34:00.350Z,19.6
2019-03-24T11:34:50.395Z,20
2019-03-24T11:35:40.173Z,20.1
2019-03-24T11:36:30.518Z,20.1
2019-03-24T11:37:20.810Z,20.4
2019-03-24T11:38:10.655Z,19.9
2019-03-24T11:39:01.845Z,19.1
2019-03-24T11:39:50.265Z,19.5
2019-03-24T11:40:41.098Z,19.1
2019-03-24T11:41:31.154Z,18.8
2019-03-24T11:42:20.953Z,19
2019-03-24T11:43:10.995Z,19.1
2019-03-24T11:44:01.336Z,19.7
2019-03-24T11:44:50.567Z,19.9
2019-03-24T11:45:41.205Z,19.7
2019-03-24T11:46:31.240Z,19.7
2019-03-24T11:47:29.524Z,19.4
2019-03-24T11:48:10.852Z,20.3
2019-03-24T11:49:01.184Z,20.8
2019-03-24T11:49:51.871Z,20.9
2019-03-24T11:50:41.818Z,20.4
2019-03-24T11:51:31.897Z,20.6
2019-03-24T11:52:21.402Z,19.8
2019-03-24T11:53:11.739Z,19.4
2019-03-24T11:54:01.797Z,19.4
2019-03-24T11:54:52.177Z,19.6
2019-03-24T11:55:41.660Z,19.6
2019-03-24T11:56:31.699Z,19.5
2019-03-24T11:57:22.031Z,20
2019-03-24T11:58:12.371Z,20.8
2019-03-24T11:59:02.207Z,21.2
2019-03-24T11:59:52.258Z,21.7
2019-03-24T12:00:42.315Z,21.1
2019-03-24T12:01:40.811Z,20.4
2019-03-24T12:02:22.398Z,20.6
2019-03-24T12:03:12.214Z,20.1
2019-03-24T12:04:02.817Z,19.6
2019-03-24T12:06:24.569Z,19.9
2019-03-24T14:07:23.827Z,21.8
2019-03-24T14:08:14.124Z,21.8
2019-03-24T14:09:04.261Z,22.2
2019-03-24T14:09:54.253Z,22.3